sensor_id;sensor_type;location;lat;lon;timestamp;P1;durP1;ratioP1;P2;durP2;ratioP2
79401;SDS011;68857;47.916;106.940;2023-04-23T00:02:24;9.27;;;5.13;;
79401;SDS011;68857;47.916;106.940;2023-04-23T00:08:41;9.27;;;4.55;;
79401;SDS011;68857;47.916;106.940;2023-04-23T00:11:47;10.85;;;4.47;;
79401;SDS011;68857;47.916;106.940;2023-04-23T00:14:53;8.43;;;4.78;;
79401;SDS011;68857;47.916;106.940;2023-04-23T00:18:00;10.93;;;7.53;;
79401;SDS011;68857;47.916;106.940;2023-04-23T00:21:06;8.77;;;4.07;;
79401;SDS011;68857;47.916;106.940;2023-04-23T00:24:12;9.52;;;4.68;;
79401;SDS011;68857;47.916;106.940;2023-04-23T00:27:18;10.38;;;6.30;;
79401;SDS011;68857;47.916;106.940;2023-04-23T00:30:24;9.68;;;4.60;;
79401;SDS011;68857;47.916;106.940;2023-04-23T00:33:30;11.73;;;6.00;;
79401;SDS011;68857;47.916;106.940;2023-04-23T00:36:36;8.75;;;4.38;;
79401;SDS011;68857;47.916;106.940;2023-04-23T00:39:43;8.93;;;4.53;;
79401;SDS011;68857;47.916;106.940;2023-04-23T00:42:42;11.73;;;5.88;;
79401;SDS011;68857;47.916;106.940;2023-04-23T00:45:39;11.13;;;4.80;;
79401;SDS011;68857;47.916;106.940;2023-04-23T00:52:14;11.02;;;6.10;;
79401;SDS011;68857;47.916;106.940;2023-04-23T00:55:10;11.55;;;5.63;;
79401;SDS011;68857;47.916;106.940;2023-04-23T00:58:16;13.57;;;6.70;;
79401;SDS011;68857;47.916;106.940;2023-04-23T01:01:22;10.45;;;6.97;;
79401;SDS011;68857;47.916;106.940;2023-04-23T01:04:32;10.05;;;6.45;;
79401;SDS011;68857;47.916;106.940;2023-04-23T01:07:38;9.85;;;7.25;;
79401;SDS011;68857;47.916;106.940;2023-04-23T01:10:35;8.13;;;4.50;;
79401;SDS011;68857;47.916;106.940;2023-04-23T01:13:43;12.10;;;7.20;;
79401;SDS011;68857;47.916;106.940;2023-04-23T01:16:47;9.48;;;5.95;;
79401;SDS011;68857;47.916;106.940;2023-04-23T01:19:54;9.48;;;5.95;;
79401;SDS011;68857;47.916;106.940;2023-04-23T01:23:04;8.52;;;7.40;;
79401;SDS011;68857;47.916;106.940;2023-04-23T01:26:10;12.75;;;7.00;;
79401;SDS011;68857;47.916;106.940;2023-04-23T01:29:16;12.50;;;4.97;;
79401;SDS011;68857;47.916;106.940;2023-04-23T01:32:25;14.23;;;7.00;;
79401;SDS011;68857;47.916;106.940;2023-04-23T01:35:31;10.13;;;7.38;;
79401;SDS011;68857;47.916;106.940;2023-04-23T01:38:37;11.55;;;6.63;;
79401;SDS011;68857;47.916;106.940;2023-04-23T01:41:43;12.77;;;6.55;;
79401;SDS011;68857;47.916;106.940;2023-04-23T01:44:50;17.55;;;7.63;;
79401;SDS011;68857;47.916;106.940;2023-04-23T01:47:56;12.07;;;7.20;;
79401;SDS011;68857;47.916;106.940;2023-04-23T01:51:02;12.98;;;8.13;;
79401;SDS011;68857;47.916;106.940;2023-04-23T01:54:08;14.75;;;7.38;;
79401;SDS011;68857;47.916;106.940;2023-04-23T02:03:11;15.25;;;9.13;;
79401;SDS011;68857;47.916;106.940;2023-04-23T02:06:17;15.15;;;8.10;;
79401;SDS011;68857;47.916;106.940;2023-04-23T02:09:47;14.73;;;8.07;;
79401;SDS011;68857;47.916;106.940;2023-04-23T02:12:36;16.10;;;9.43;;
79401;SDS011;68857;47.916;106.940;2023-04-23T02:15:47;15.77;;;9.55;;
79401;SDS011;68857;47.916;106.940;2023-04-23T02:18:51;14.48;;;8.07;;
79401;SDS011;68857;47.916;106.940;2023-04-23T02:21:59;16.23;;;9.60;;
79401;SDS011;68857;47.916;106.940;2023-04-23T02:25:09;18.67;;;8.75;;
79401;SDS011;68857;47.916;106.940;2023-04-23T02:28:12;13.35;;;8.57;;
79401;SDS011;68857;47.916;106.940;2023-04-23T02:31:20;13.57;;;7.50;;
79401;SDS011;68857;47.916;106.940;2023-04-23T02:34:24;14.30;;;10.40;;
79401;SDS011;68857;47.916;106.940;2023-04-23T02:37:26;13.20;;;8.90;;
79401;SDS011;68857;47.916;106.940;2023-04-23T02:40:47;13.98;;;10.07;;
79401;SDS011;68857;47.916;106.940;2023-04-23T02:43:52;13.57;;;7.68;;
79401;SDS011;68857;47.916;106.940;2023-04-23T02:46:58;13.60;;;7.47;;
79401;SDS011;68857;47.916;106.940;2023-04-23T02:53:20;11.85;;;6.82;;
79401;SDS011;68857;47.916;106.940;2023-04-23T02:56:40;11.73;;;6.85;;
79401;SDS011;68857;47.916;106.940;2023-04-23T02:59:45;11.70;;;6.95;;
79401;SDS011;68857;47.916;106.940;2023-04-23T03:02:48;12.20;;;6.30;;
79401;SDS011;68857;47.916;106.940;2023-04-23T03:05:59;17.55;;;6.30;;
79401;SDS011;68857;47.916;106.940;2023-04-23T03:09:13;11.07;;;6.15;;
79401;SDS011;68857;47.916;106.940;2023-04-23T03:12:05;8.65;;;5.32;;
79401;SDS011;68857;47.916;106.940;2023-04-23T03:14:32;10.50;;;6.53;;
79401;SDS011;68857;47.916;106.940;2023-04-23T03:16:58;9.57;;;5.85;;
79401;SDS011;68857;47.916;106.940;2023-04-23T03:19:25;12.73;;;6.35;;
79401;SDS011;68857;47.916;106.940;2023-04-23T03:21:51;10.07;;;5.10;;
79401;SDS011;68857;47.916;106.940;2023-04-23T03:24:18;9.43;;;4.82;;
79401;SDS011;68857;47.916;106.940;2023-04-23T03:26:44;9.75;;;5.43;;
79401;SDS011;68857;47.916;106.940;2023-04-23T03:29:11;12.10;;;8.68;;
79401;SDS011;68857;47.916;106.940;2023-04-23T03:31:38;12.30;;;4.38;;
79401;SDS011;68857;47.916;106.940;2023-04-23T03:34:05;8.63;;;3.90;;
79401;SDS011;68857;47.916;106.940;2023-04-23T03:36:31;6.40;;;4.13;;
79401;SDS011;68857;47.916;106.940;2023-04-23T03:38:58;14.68;;;7.00;;
79401;SDS011;68857;47.916;106.940;2023-04-23T03:41:26;6.47;;;4.03;;
79401;SDS011;68857;47.916;106.940;2023-04-23T03:43:53;9.07;;;3.97;;
79401;SDS011;68857;47.916;106.940;2023-04-23T03:46:19;8.55;;;7.70;;
79401;SDS011;68857;47.916;106.940;2023-04-23T03:48:45;6.80;;;3.60;;
79401;SDS011;68857;47.916;106.940;2023-04-23T03:51:12;10.38;;;4.07;;
79401;SDS011;68857;47.916;106.940;2023-04-23T03:53:39;6.22;;;3.28;;
79401;SDS011;68857;47.916;106.940;2023-04-23T03:56:05;7.18;;;4.05;;
79401;SDS011;68857;47.916;106.940;2023-04-23T03:58:32;7.70;;;3.30;;
79401;SDS011;68857;47.916;106.940;2023-04-23T04:00:58;6.55;;;3.67;;
79401;SDS011;68857;47.916;106.940;2023-04-23T04:03:24;8.88;;;5.75;;
79401;SDS011;68857;47.916;106.940;2023-04-23T04:05:51;7.72;;;5.45;;
79401;SDS011;68857;47.916;106.940;2023-04-23T04:08:17;8.02;;;3.60;;
79401;SDS011;68857;47.916;106.940;2023-04-23T04:10:44;5.15;;;3.67;;
79401;SDS011;68857;47.916;106.940;2023-04-23T04:13:11;5.28;;;3.00;;
79401;SDS011;68857;47.916;106.940;2023-04-23T04:15:37;6.70;;;5.00;;
79401;SDS011;68857;47.916;106.940;2023-04-23T04:18:04;7.93;;;3.85;;
79401;SDS011;68857;47.916;106.940;2023-04-23T04:20:31;7.80;;;3.38;;
79401;SDS011;68857;47.916;106.940;2023-04-23T04:22:57;7.55;;;3.28;;
79401;SDS011;68857;47.916;106.940;2023-04-23T04:25:24;6.88;;;3.63;;
79401;SDS011;68857;47.916;106.940;2023-04-23T04:27:53;7.10;;;3.22;;
79401;SDS011;68857;47.916;106.940;2023-04-23T04:30:19;6.45;;;3.28;;
79401;SDS011;68857;47.916;106.940;2023-04-23T04:32:46;6.93;;;3.53;;
79401;SDS011;68857;47.916;106.940;2023-04-23T04:35:15;7.97;;;3.35;;
79401;SDS011;68857;47.916;106.940;2023-04-23T04:37:41;7.13;;;3.38;;
79401;SDS011;68857;47.916;106.940;2023-04-23T04:40:09;8.00;;;5.30;;
79401;SDS011;68857;47.916;106.940;2023-04-23T04:42:36;10.00;;;4.82;;
79401;SDS011;68857;47.916;106.940;2023-04-23T04:45:03;7.43;;;3.03;;
79401;SDS011;68857;47.916;106.940;2023-04-23T04:47:30;7.22;;;2.67;;
79401;SDS011;68857;47.916;106.940;2023-04-23T04:49:56;9.05;;;3.08;;
79401;SDS011;68857;47.916;106.940;2023-04-23T04:52:24;8.05;;;3.10;;
79401;SDS011;68857;47.916;106.940;2023-04-23T04:54:51;7.68;;;3.55;;
79401;SDS011;68857;47.916;106.940;2023-04-23T04:57:17;7.35;;;3.28;;
79401;SDS011;68857;47.916;106.940;2023-04-23T04:59:47;7.85;;;3.05;;
79401;SDS011;68857;47.916;106.940;2023-04-23T05:02:13;8.15;;;5.03;;
79401;SDS011;68857;47.916;106.940;2023-04-23T05:04:40;7.63;;;3.88;;
79401;SDS011;68857;47.916;106.940;2023-04-23T05:07:07;10.48;;;3.50;;
79401;SDS011;68857;47.916;106.940;2023-04-23T05:09:34;10.23;;;3.72;;
79401;SDS011;68857;47.916;106.940;2023-04-23T05:12:00;9.23;;;3.30;;
79401;SDS011;68857;47.916;106.940;2023-04-23T05:14:27;11.18;;;3.72;;
79401;SDS011;68857;47.916;106.940;2023-04-23T05:16:54;6.75;;;3.45;;
79401;SDS011;68857;47.916;106.940;2023-04-23T05:19:20;6.30;;;3.10;;
79401;SDS011;68857;47.916;106.940;2023-04-23T05:21:48;12.00;;;4.82;;
79401;SDS011;68857;47.916;106.940;2023-04-23T05:24:14;8.55;;;3.33;;
79401;SDS011;68857;47.916;106.940;2023-04-23T05:26:41;7.60;;;3.22;;
79401;SDS011;68857;47.916;106.940;2023-04-23T05:29:07;7.53;;;3.83;;
79401;SDS011;68857;47.916;106.940;2023-04-23T05:31:34;6.60;;;3.15;;
79401;SDS011;68857;47.916;106.940;2023-04-23T05:34:01;7.95;;;2.63;;
79401;SDS011;68857;47.916;106.940;2023-04-23T05:36:28;8.75;;;3.53;;
79401;SDS011;68857;47.916;106.940;2023-04-23T05:38:55;6.00;;;3.05;;
79401;SDS011;68857;47.916;106.940;2023-04-23T05:41:22;9.90;;;5.43;;
79401;SDS011;68857;47.916;106.940;2023-04-23T05:43:48;6.65;;;3.63;;
79401;SDS011;68857;47.916;106.940;2023-04-23T05:46:15;7.50;;;4.03;;
79401;SDS011;68857;47.916;106.940;2023-04-23T05:48:41;8.05;;;3.63;;
79401;SDS011;68857;47.916;106.940;2023-04-23T05:51:08;7.05;;;3.50;;
79401;SDS011;68857;47.916;106.940;2023-04-23T05:53:35;6.43;;;3.63;;
79401;SDS011;68857;47.916;106.940;2023-04-23T05:56:01;6.53;;;2.95;;
79401;SDS011;68857;47.916;106.940;2023-04-23T05:58:28;7.88;;;3.88;;
79401;SDS011;68857;47.916;106.940;2023-04-23T06:00:54;8.88;;;3.97;;
79401;SDS011;68857;47.916;106.940;2023-04-23T06:03:21;5.45;;;2.88;;
79401;SDS011;68857;47.916;106.940;2023-04-23T06:05:48;7.47;;;3.15;;
79401;SDS011;68857;47.916;106.940;2023-04-23T06:08:15;9.18;;;4.18;;
79401;SDS011;68857;47.916;106.940;2023-04-23T06:10:41;11.30;;;4.95;;
79401;SDS011;68857;47.916;106.940;2023-04-23T06:13:08;11.10;;;4.32;;
79401;SDS011;68857;47.916;106.940;2023-04-23T06:15:35;9.60;;;4.78;;
79401;SDS011;68857;47.916;106.940;2023-04-23T06:18:01;13.45;;;5.40;;
79401;SDS011;68857;47.916;106.940;2023-04-23T06:20:28;13.18;;;4.97;;
79401;SDS011;68857;47.916;106.940;2023-04-23T06:22:55;15.30;;;5.22;;
79401;SDS011;68857;47.916;106.940;2023-04-23T06:25:22;13.38;;;5.82;;
79401;SDS011;68857;47.916;106.940;2023-04-23T06:27:48;11.27;;;4.88;;
79401;SDS011;68857;47.916;106.940;2023-04-23T06:30:15;15.00;;;4.72;;
79401;SDS011;68857;47.916;106.940;2023-04-23T06:32:42;11.77;;;5.10;;
79401;SDS011;68857;47.916;106.940;2023-04-23T06:35:08;10.48;;;3.78;;
79401;SDS011;68857;47.916;106.940;2023-04-23T06:37:35;10.75;;;4.80;;
79401;SDS011;68857;47.916;106.940;2023-04-23T06:40:01;13.15;;;4.90;;
79401;SDS011;68857;47.916;106.940;2023-04-23T06:42:28;12.25;;;5.38;;
79401;SDS011;68857;47.916;106.940;2023-04-23T06:44:55;9.65;;;4.18;;
79401;SDS011;68857;47.916;106.940;2023-04-23T06:47:23;12.43;;;4.53;;
79401;SDS011;68857;47.916;106.940;2023-04-23T06:49:50;8.70;;;4.25;;
79401;SDS011;68857;47.916;106.940;2023-04-23T06:52:16;10.00;;;3.30;;
79401;SDS011;68857;47.916;106.940;2023-04-23T06:54:43;6.65;;;3.28;;
79401;SDS011;68857;47.916;106.940;2023-04-23T06:57:10;6.68;;;2.90;;
79401;SDS011;68857;47.916;106.940;2023-04-23T06:59:36;8.07;;;3.70;;
79401;SDS011;68857;47.916;106.940;2023-04-23T07:02:03;8.65;;;3.95;;
79401;SDS011;68857;47.916;106.940;2023-04-23T07:04:29;8.70;;;3.13;;
79401;SDS011;68857;47.916;106.940;2023-04-23T07:06:56;8.82;;;4.65;;
79401;SDS011;68857;47.916;106.940;2023-04-23T07:09:22;7.32;;;3.17;;
79401;SDS011;68857;47.916;106.940;2023-04-23T07:11:49;9.05;;;2.65;;
79401;SDS011;68857;47.916;106.940;2023-04-23T07:14:16;10.10;;;4.65;;
79401;SDS011;68857;47.916;106.940;2023-04-23T07:16:42;5.47;;;2.50;;
79401;SDS011;68857;47.916;106.940;2023-04-23T07:19:09;6.68;;;2.75;;
79401;SDS011;68857;47.916;106.940;2023-04-23T07:21:36;7.00;;;3.03;;
79401;SDS011;68857;47.916;106.940;2023-04-23T07:24:02;10.52;;;3.60;;
79401;SDS011;68857;47.916;106.940;2023-04-23T07:26:32;7.35;;;2.88;;
79401;SDS011;68857;47.916;106.940;2023-04-23T07:28:59;7.28;;;2.20;;
79401;SDS011;68857;47.916;106.940;2023-04-23T07:31:26;4.13;;;1.80;;
79401;SDS011;68857;47.916;106.940;2023-04-23T07:33:53;6.60;;;2.08;;
79401;SDS011;68857;47.916;106.940;2023-04-23T07:36:20;3.50;;;2.10;;
79401;SDS011;68857;47.916;106.940;2023-04-23T07:38:47;4.40;;;2.50;;
79401;SDS011;68857;47.916;106.940;2023-04-23T07:41:13;6.35;;;3.05;;
79401;SDS011;68857;47.916;106.940;2023-04-23T07:43:40;5.32;;;2.30;;
79401;SDS011;68857;47.916;106.940;2023-04-23T07:46:07;8.70;;;2.40;;
79401;SDS011;68857;47.916;106.940;2023-04-23T07:48:34;8.55;;;3.05;;
79401;SDS011;68857;47.916;106.940;2023-04-23T07:51:01;9.18;;;3.55;;
79401;SDS011;68857;47.916;106.940;2023-04-23T07:53:27;10.48;;;3.58;;
79401;SDS011;68857;47.916;106.940;2023-04-23T07:55:54;12.90;;;3.40;;
79401;SDS011;68857;47.916;106.940;2023-04-23T07:58:21;13.95;;;3.75;;
79401;SDS011;68857;47.916;106.940;2023-04-23T08:00:48;7.57;;;2.75;;
79401;SDS011;68857;47.916;106.940;2023-04-23T08:03:15;11.05;;;3.03;;
79401;SDS011;68857;47.916;106.940;2023-04-23T08:05:41;8.45;;;3.53;;
79401;SDS011;68857;47.916;106.940;2023-04-23T08:08:10;18.98;;;5.25;;
79401;SDS011;68857;47.916;106.940;2023-04-23T08:10:36;12.02;;;3.78;;
79401;SDS011;68857;47.916;106.940;2023-04-23T08:13:03;12.48;;;4.28;;
79401;SDS011;68857;47.916;106.940;2023-04-23T08:15:30;13.02;;;5.63;;
79401;SDS011;68857;47.916;106.940;2023-04-23T08:17:56;14.43;;;4.80;;
79401;SDS011;68857;47.916;106.940;2023-04-23T08:20:23;9.15;;;4.22;;
79401;SDS011;68857;47.916;106.940;2023-04-23T08:22:50;10.48;;;5.53;;
79401;SDS011;68857;47.916;106.940;2023-04-23T08:25:18;11.48;;;3.10;;
79401;SDS011;68857;47.916;106.940;2023-04-23T08:27:48;11.20;;;4.10;;
79401;SDS011;68857;47.916;106.940;2023-04-23T08:30:14;10.05;;;4.03;;
79401;SDS011;68857;47.916;106.940;2023-04-23T08:32:41;8.02;;;3.05;;
79401;SDS011;68857;47.916;106.940;2023-04-23T08:35:07;10.27;;;3.67;;
79401;SDS011;68857;47.916;106.940;2023-04-23T08:37:34;10.13;;;3.53;;
79401;SDS011;68857;47.916;106.940;2023-04-23T08:40:03;10.88;;;3.35;;
79401;SDS011;68857;47.916;106.940;2023-04-23T08:42:37;9.70;;;4.40;;
79401;SDS011;68857;47.916;106.940;2023-04-23T08:45:08;9.00;;;3.72;;
79401;SDS011;68857;47.916;106.940;2023-04-23T08:47:35;16.55;;;3.78;;
79401;SDS011;68857;47.916;106.940;2023-04-23T08:50:04;12.88;;;3.33;;
79401;SDS011;68857;47.916;106.940;2023-04-23T08:52:32;8.88;;;3.10;;
79401;SDS011;68857;47.916;106.940;2023-04-23T08:55:00;13.50;;;3.65;;
79401;SDS011;68857;47.916;106.940;2023-04-23T08:57:27;9.95;;;3.80;;
79401;SDS011;68857;47.916;106.940;2023-04-23T08:59:53;10.27;;;3.45;;
79401;SDS011;68857;47.916;106.940;2023-04-23T09:02:21;9.80;;;3.25;;
79401;SDS011;68857;47.916;106.940;2023-04-23T09:04:48;14.07;;;3.55;;
79401;SDS011;68857;47.916;106.940;2023-04-23T09:07:15;8.18;;;2.65;;
79401;SDS011;68857;47.916;106.940;2023-04-23T09:09:42;11.13;;;3.50;;
79401;SDS011;68857;47.916;106.940;2023-04-23T09:12:10;10.77;;;2.30;;
79401;SDS011;68857;47.916;106.940;2023-04-23T09:14:37;9.75;;;2.38;;
79401;SDS011;68857;47.916;106.940;2023-04-23T09:17:03;8.70;;;2.88;;
79401;SDS011;68857;47.916;106.940;2023-04-23T09:19:31;11.40;;;2.88;;
79401;SDS011;68857;47.916;106.940;2023-04-23T09:21:58;9.75;;;2.70;;
79401;SDS011;68857;47.916;106.940;2023-04-23T09:24:28;7.18;;;2.50;;
79401;SDS011;68857;47.916;106.940;2023-04-23T09:26:56;10.70;;;2.78;;
79401;SDS011;68857;47.916;106.940;2023-04-23T09:29:22;8.85;;;3.10;;
79401;SDS011;68857;47.916;106.940;2023-04-23T09:31:50;10.45;;;4.82;;
79401;SDS011;68857;47.916;106.940;2023-04-23T09:34:18;10.93;;;2.97;;
79401;SDS011;68857;47.916;106.940;2023-04-23T09:36:46;10.02;;;2.50;;
79401;SDS011;68857;47.916;106.940;2023-04-23T09:39:16;8.85;;;2.53;;
79401;SDS011;68857;47.916;106.940;2023-04-23T09:41:43;8.73;;;2.78;;
79401;SDS011;68857;47.916;106.940;2023-04-23T09:44:19;10.13;;;3.25;;
79401;SDS011;68857;47.916;106.940;2023-04-23T09:46:48;7.30;;;3.28;;
79401;SDS011;68857;47.916;106.940;2023-04-23T09:49:15;8.48;;;3.03;;
79401;SDS011;68857;47.916;106.940;2023-04-23T09:51:43;10.05;;;4.70;;
79401;SDS011;68857;47.916;106.940;2023-04-23T09:54:14;6.47;;;2.35;;
79401;SDS011;68857;47.916;106.940;2023-04-23T09:56:41;9.80;;;2.88;;
79401;SDS011;68857;47.916;106.940;2023-04-23T09:59:24;8.60;;;3.08;;
79401;SDS011;68857;47.916;106.940;2023-04-23T10:01:51;7.40;;;4.15;;
79401;SDS011;68857;47.916;106.940;2023-04-23T10:04:18;7.28;;;3.33;;
79401;SDS011;68857;47.916;106.940;2023-04-23T10:06:56;11.02;;;3.05;;
79401;SDS011;68857;47.916;106.940;2023-04-23T10:09:23;9.85;;;3.65;;
79401;SDS011;68857;47.916;106.940;2023-04-23T10:11:53;10.90;;;3.03;;
79401;SDS011;68857;47.916;106.940;2023-04-23T10:14:21;9.73;;;4.30;;
79401;SDS011;68857;47.916;106.940;2023-04-23T10:16:49;8.13;;;2.45;;
79401;SDS011;68857;47.916;106.940;2023-04-23T10:19:16;9.68;;;2.75;;
79401;SDS011;68857;47.916;106.940;2023-04-23T10:21:43;9.25;;;2.50;;
79401;SDS011;68857;47.916;106.940;2023-04-23T10:24:11;6.53;;;2.22;;
79401;SDS011;68857;47.916;106.940;2023-04-23T10:26:40;11.30;;;3.20;;
79401;SDS011;68857;47.916;106.940;2023-04-23T10:29:08;8.38;;;2.50;;
79401;SDS011;68857;47.916;106.940;2023-04-23T10:31:39;10.57;;;2.55;;
79401;SDS011;68857;47.916;106.940;2023-04-23T10:34:07;7.80;;;2.65;;
79401;SDS011;68857;47.916;106.940;2023-04-23T10:36:35;8.23;;;2.70;;
79401;SDS011;68857;47.916;106.940;2023-04-23T10:39:02;8.27;;;2.75;;
79401;SDS011;68857;47.916;106.940;2023-04-23T10:41:34;9.82;;;2.97;;
79401;SDS011;68857;47.916;106.940;2023-04-23T10:44:02;10.20;;;2.65;;
79401;SDS011;68857;47.916;106.940;2023-04-23T10:46:31;7.07;;;2.58;;
79401;SDS011;68857;47.916;106.940;2023-04-23T10:49:11;11.32;;;2.88;;
79401;SDS011;68857;47.916;106.940;2023-04-23T10:51:41;6.85;;;2.45;;
79401;SDS011;68857;47.916;106.940;2023-04-23T10:54:14;6.78;;;2.53;;
79401;SDS011;68857;47.916;106.940;2023-04-23T10:56:42;7.72;;;2.25;;
79401;SDS011;68857;47.916;106.940;2023-04-23T10:59:18;9.65;;;3.45;;
79401;SDS011;68857;47.916;106.940;2023-04-23T11:01:50;6.05;;;3.13;;
79401;SDS011;68857;47.916;106.940;2023-04-23T11:04:29;6.00;;;1.88;;
79401;SDS011;68857;47.916;106.940;2023-04-23T11:06:57;8.10;;;2.20;;
79401;SDS011;68857;47.916;106.940;2023-04-23T11:09:27;6.47;;;2.22;;
79401;SDS011;68857;47.916;106.940;2023-04-23T11:11:58;6.57;;;2.30;;
79401;SDS011;68857;47.916;106.940;2023-04-23T11:14:32;12.02;;;3.58;;
79401;SDS011;68857;47.916;106.940;2023-04-23T11:17:04;9.43;;;3.40;;
79401;SDS011;68857;47.916;106.940;2023-04-23T11:19:35;9.77;;;3.08;;
79401;SDS011;68857;47.916;106.940;2023-04-23T11:27:04;12.52;;;5.38;;
79401;SDS011;68857;47.916;106.940;2023-04-23T11:29:31;12.45;;;5.60;;
79401;SDS011;68857;47.916;106.940;2023-04-23T11:31:58;12.15;;;4.85;;
79401;SDS011;68857;47.916;106.940;2023-04-23T11:34:25;17.17;;;5.57;;
79401;SDS011;68857;47.916;106.940;2023-04-23T11:36:52;19.15;;;6.60;;
79401;SDS011;68857;47.916;106.940;2023-04-23T11:39:20;19.38;;;7.28;;
79401;SDS011;68857;47.916;106.940;2023-04-23T11:41:48;21.85;;;9.45;;
79401;SDS011;68857;47.916;106.940;2023-04-23T11:44:17;17.70;;;7.95;;
79401;SDS011;68857;47.916;106.940;2023-04-23T11:46:48;21.75;;;10.07;;
79401;SDS011;68857;47.916;106.940;2023-04-23T11:49:17;22.90;;;9.45;;
79401;SDS011;68857;47.916;106.940;2023-04-23T11:51:46;18.25;;;9.30;;
79401;SDS011;68857;47.916;106.940;2023-04-23T11:54:13;17.83;;;8.40;;
79401;SDS011;68857;47.916;106.940;2023-04-23T11:56:39;19.75;;;8.73;;
79401;SDS011;68857;47.916;106.940;2023-04-23T11:59:06;23.05;;;11.05;;
79401;SDS011;68857;47.916;106.940;2023-04-23T12:04:15;17.90;;;9.73;;
79401;SDS011;68857;47.916;106.940;2023-04-23T12:06:43;19.15;;;7.70;;
79401;SDS011;68857;47.916;106.940;2023-04-23T12:09:10;22.25;;;7.20;;
79401;SDS011;68857;47.916;106.940;2023-04-23T12:11:38;17.15;;;7.90;;
79401;SDS011;68857;47.916;106.940;2023-04-23T12:14:05;19.13;;;7.63;;
79401;SDS011;68857;47.916;106.940;2023-04-23T12:16:39;18.67;;;6.95;;
79401;SDS011;68857;47.916;106.940;2023-04-23T12:19:12;19.27;;;7.68;;
79401;SDS011;68857;47.916;106.940;2023-04-23T12:21:51;21.55;;;10.38;;
79401;SDS011;68857;47.916;106.940;2023-04-23T12:24:22;19.73;;;8.48;;
79401;SDS011;68857;47.916;106.940;2023-04-23T12:26:50;16.95;;;7.78;;
79401;SDS011;68857;47.916;106.940;2023-04-23T12:29:19;22.33;;;9.38;;
79401;SDS011;68857;47.916;106.940;2023-04-23T12:31:46;23.85;;;9.18;;
79401;SDS011;68857;47.916;106.940;2023-04-23T12:34:13;25.15;;;9.68;;
79401;SDS011;68857;47.916;106.940;2023-04-23T12:36:45;23.77;;;9.88;;
79401;SDS011;68857;47.916;106.940;2023-04-23T12:39:28;22.00;;;10.35;;
79401;SDS011;68857;47.916;106.940;2023-04-23T12:42:00;22.25;;;10.23;;
79401;SDS011;68857;47.916;106.940;2023-04-23T12:44:32;24.67;;;10.57;;
79401;SDS011;68857;47.916;106.940;2023-04-23T12:47:03;26.05;;;12.20;;
79401;SDS011;68857;47.916;106.940;2023-04-23T12:49:31;30.67;;;13.43;;
79401;SDS011;68857;47.916;106.940;2023-04-23T12:51:59;34.55;;;14.73;;
79401;SDS011;68857;47.916;106.940;2023-04-23T12:54:29;32.53;;;16.27;;
79401;SDS011;68857;47.916;106.940;2023-04-23T12:56:57;32.08;;;15.32;;
79401;SDS011;68857;47.916;106.940;2023-04-23T12:59:24;39.22;;;17.48;;
79401;SDS011;68857;47.916;106.940;2023-04-23T13:01:51;40.30;;;17.70;;
79401;SDS011;68857;47.916;106.940;2023-04-23T13:04:18;35.10;;;17.17;;
79401;SDS011;68857;47.916;106.940;2023-04-23T13:06:45;34.78;;;16.25;;
79401;SDS011;68857;47.916;106.940;2023-04-23T13:09:11;32.88;;;14.80;;
79401;SDS011;68857;47.916;106.940;2023-04-23T13:11:38;32.60;;;14.23;;
79401;SDS011;68857;47.916;106.940;2023-04-23T13:14:06;30.98;;;14.20;;
79401;SDS011;68857;47.916;106.940;2023-04-23T13:16:32;29.92;;;14.48;;
79401;SDS011;68857;47.916;106.940;2023-04-23T13:18:59;28.05;;;13.45;;
79401;SDS011;68857;47.916;106.940;2023-04-23T13:21:26;37.33;;;14.70;;
79401;SDS011;68857;47.916;106.940;2023-04-23T13:23:52;31.88;;;13.95;;
79401;SDS011;68857;47.916;106.940;2023-04-23T13:26:19;33.63;;;14.43;;
79401;SDS011;68857;47.916;106.940;2023-04-23T13:28:46;39.28;;;19.30;;
79401;SDS011;68857;47.916;106.940;2023-04-23T13:31:13;37.80;;;17.63;;
79401;SDS011;68857;47.916;106.940;2023-04-23T13:33:40;39.67;;;18.65;;
79401;SDS011;68857;47.916;106.940;2023-04-23T13:36:07;42.55;;;18.48;;
79401;SDS011;68857;47.916;106.940;2023-04-23T13:38:33;42.22;;;19.80;;
79401;SDS011;68857;47.916;106.940;2023-04-23T13:41:00;39.88;;;19.05;;
79401;SDS011;68857;47.916;106.940;2023-04-23T13:43:27;40.47;;;18.20;;
79401;SDS011;68857;47.916;106.940;2023-04-23T13:45:53;38.47;;;16.63;;
79401;SDS011;68857;47.916;106.940;2023-04-23T13:48:20;38.10;;;17.17;;
79401;SDS011;68857;47.916;106.940;2023-04-23T13:50:47;35.88;;;17.80;;
79401;SDS011;68857;47.916;106.940;2023-04-23T13:53:13;45.35;;;23.38;;
79401;SDS011;68857;47.916;106.940;2023-04-23T13:55:40;35.30;;;18.52;;
79401;SDS011;68857;47.916;106.940;2023-04-23T13:58:06;35.38;;;16.08;;
79401;SDS011;68857;47.916;106.940;2023-04-23T14:00:33;31.90;;;15.68;;
79401;SDS011;68857;47.916;106.940;2023-04-23T14:03:00;35.05;;;18.48;;
79401;SDS011;68857;47.916;106.940;2023-04-23T14:05:27;37.78;;;18.60;;
79401;SDS011;68857;47.916;106.940;2023-04-23T14:07:53;35.22;;;18.48;;
79401;SDS011;68857;47.916;106.940;2023-04-23T14:10:20;34.17;;;16.55;;
79401;SDS011;68857;47.916;106.940;2023-04-23T14:12:47;33.92;;;15.95;;
79401;SDS011;68857;47.916;106.940;2023-04-23T14:15:14;33.63;;;18.15;;
79401;SDS011;68857;47.916;106.940;2023-04-23T14:17:41;35.20;;;15.93;;
79401;SDS011;68857;47.916;106.940;2023-04-23T14:20:09;32.97;;;16.88;;
79401;SDS011;68857;47.916;106.940;2023-04-23T14:22:37;35.97;;;17.25;;
79401;SDS011;68857;47.916;106.940;2023-04-23T14:25:07;34.00;;;16.13;;
79401;SDS011;68857;47.916;106.940;2023-04-23T14:27:43;28.90;;;15.50;;
79401;SDS011;68857;47.916;106.940;2023-04-23T14:30:14;33.63;;;14.18;;
79401;SDS011;68857;47.916;106.940;2023-04-23T14:32:41;26.23;;;13.73;;
79401;SDS011;68857;47.916;106.940;2023-04-23T14:35:08;32.00;;;13.80;;
79401;SDS011;68857;47.916;106.940;2023-04-23T14:37:35;24.70;;;13.05;;
79401;SDS011;68857;47.916;106.940;2023-04-23T14:40:02;26.65;;;13.82;;
79401;SDS011;68857;47.916;106.940;2023-04-23T14:42:29;22.08;;;10.85;;
79401;SDS011;68857;47.916;106.940;2023-04-23T14:44:57;20.73;;;13.00;;
79401;SDS011;68857;47.916;106.940;2023-04-23T14:47:24;20.70;;;9.35;;
79401;SDS011;68857;47.916;106.940;2023-04-23T14:49:51;25.05;;;8.23;;
79401;SDS011;68857;47.916;106.940;2023-04-23T14:52:17;17.33;;;8.43;;
79401;SDS011;68857;47.916;106.940;2023-04-23T14:54:43;19.10;;;7.57;;
79401;SDS011;68857;47.916;106.940;2023-04-23T14:57:10;20.02;;;9.60;;
79401;SDS011;68857;47.916;106.940;2023-04-23T14:59:37;16.70;;;6.93;;
79401;SDS011;68857;47.916;106.940;2023-04-23T15:02:03;15.20;;;6.22;;
79401;SDS011;68857;47.916;106.940;2023-04-23T15:04:29;14.57;;;6.63;;
79401;SDS011;68857;47.916;106.940;2023-04-23T15:06:56;14.38;;;5.68;;
79401;SDS011;68857;47.916;106.940;2023-04-23T15:09:23;14.13;;;5.68;;
79401;SDS011;68857;47.916;106.940;2023-04-23T15:11:50;11.38;;;6.30;;
79401;SDS011;68857;47.916;106.940;2023-04-23T15:16:43;16.38;;;8.45;;